Charlotte, North Carolina
Current Conditions -  °F | °C
As of 11:52 AM on Thursday 27 Nov 2014 (Local Time) from KCLT Reporting Station
Broken Clouds Broken Clouds  
Wind Chill: 50°   Ceiling: 4900
Heat Index: 50°   Visibility: 10mi
Dew Point: 28°   Wind: 15mph
Humidity: 43%   Direction: 300°WNW
Pressure: 30.1"   Gusts: 20mph
Location:  35.22°N, 80.84°W
Report Text: KCLT 271652Z 30013G17KT 10SM BKN049 BKN060 10/M02 A3010 RMK AO2 SLP194 T01001022
Loading
Personal Weather Stations






























Interactive Weather Map New forecast layout! Learn more

10-Day Weather Forecast

Advertisements
Track Severe Weather on mobile